Alcorn State University, Mississippi
Current Conditions -  °F | °C
As of 9:35 PM on Friday 19 Dec 2014 (Local Time) from KHEZ Reporting Station
Overcast Overcast  
Wind Chill: 41°   Ceiling: 600
Heat Index: 46°   Visibility: 10mi
Dew Point: 43°   Wind: 10mph
Humidity: 87%   Direction: 10°N
Pressure: 30.15"   Gusts: NA
Location:  31.8192°N, 91.1912°W
Report Text: KHEZ 200335Z AUTO 01009KT 10SM OVC006 08/06 A3015 RMK AO1
Loading
Personal Weather Stations






























Interactive Weather Map New forecast layout! Learn more

10-Day Weather Forecast

Advertisements
Track Severe Weather on mobile